Time;durP1;ratioP1;P1;durP2;ratioP2;P2;SDS_P1;SDS_P2;PMS_P1;PMS_P2;Temp;Humidity;BMP_temperature;BMP_pressure;BME280_temperature;BME280_humidity;BME280_pressure;Samples;Min_cycle;Max_cycle;Signal;HPM_P1;HPM_P2
2022/09/14 00:04:56;;;;;;;15.48;4.40;;;;;;;28.28;45.63;100095.19;5075597;28;20042;-48
2022/09/14 00:07:24;;;;;;;12.05;2.83;;;;;;;28.31;45.56;100100.44;5067444;28;20036;-52
2022/09/14 00:09:52;;;;;;;10.68;3.00;;;;;;;28.27;45.87;100099.63;5072797;28;20025;-51
2022/09/14 00:12:21;;;;;;;13.80;4.03;;;;;;;28.23;45.70;100092.66;5071427;28;20025;-51
2022/09/14 00:14:50;;;;;;;11.15;3.55;;;;;;;28.18;45.77;100091.88;5070095;28;20529;-52
2022/09/14 00:17:18;;;;;;;12.15;3.63;;;;;;;28.25;45.42;100089.97;5073914;28;20039;-51
2022/09/14 00:19:47;;;;;;;13.45;3.20;;;;;;;28.27;45.54;100091.72;5068802;28;20478;-51
2022/09/14 00:22:16;;;;;;;13.13;3.72;;;;;;;28.28;45.63;100096.09;5068079;28;20115;-50
2022/09/14 00:24:44;;;;;;;12.65;4.20;;;;;;;28.25;45.69;100084.72;5064027;28;20033;-50
2022/09/14 00:27:13;;;;;;;10.30;2.70;;;;;;;28.24;45.48;100090.88;5064464;28;20110;-51
2022/09/14 00:29:41;;;;;;;11.70;3.20;;;;;;;28.24;45.62;100081.22;5070652;28;20044;-49
2022/09/14 00:32:10;;;;;;;13.18;3.50;;;;;;;28.28;45.41;100084.66;5053111;28;20505;-52
2022/09/14 00:34:38;;;;;;;12.52;3.30;;;;;;;28.21;45.60;100073.34;5076768;28;20024;-50
2022/09/14 00:37:07;;;;;;;11.25;2.83;;;;;;;28.12;45.68;100077.03;5069652;28;20387;-51
2022/09/14 00:39:36;;;;;;;12.63;3.45;;;;;;;28.11;45.69;100080.56;5064416;28;20037;-52
2022/09/14 00:42:05;;;;;;;12.52;3.13;;;;;;;28.06;46.00;100077.09;5064706;28;20028;-53
2022/09/14 00:44:33;;;;;;;9.13;2.92;;;;;;;28.05;45.83;100078.88;5068705;28;20503;-51
2022/09/14 00:47:03;;;;;;;10.57;3.05;;;;;;;28.03;45.89;100071.91;5069135;28;21035;-50
2022/09/14 00:49:35;;;;;;;8.88;2.80;;;;;;;28.07;45.80;100070.09;5053760;28;20024;-49
2022/09/14 00:52:09;;;;;;;9.25;2.80;;;;;;;28.07;45.85;100070.09;5069607;28;20036;-50
2022/09/14 00:54:44;;;;;;;10.07;3.45;;;;;;;28.13;45.82;100070.00;5068852;28;20021;-49
2022/09/14 00:57:13;;;;;;;6.57;2.63;;;;;;;28.22;45.38;100068.94;5051829;28;20041;-52
2022/09/14 00:59:43;;;;;;;8.88;2.30;;;;;;;28.25;45.36;100064.50;5062855;28;20028;-52
2022/09/14 01:02:13;;;;;;;8.57;2.58;;;;;;;28.26;45.16;100063.59;5072402;28;20032;-49
2022/09/14 01:04:42;;;;;;;5.90;2.15;;;;;;;28.27;45.02;100064.47;5079065;28;20036;-53
2022/09/14 01:07:41;;;;;;;11.02;2.70;;;;;;;28.26;45.15;100055.69;5073018;28;20028;-52
2022/09/14 01:10:13;;;;;;;11.75;3.00;;;;;;;28.29;45.17;100050.38;5069181;28;20044;-50
2022/09/14 01:13:06;;;;;;;8.88;2.42;;;;;;;28.28;45.12;100051.25;5052850;28;20056;-50
2022/09/14 01:16:06;;;;;;;6.70;2.60;;;;;;;28.22;45.32;100048.72;5074007;28;20119;-49
2022/09/14 01:18:39;;;;;;;6.93;2.60;;;;;;;28.26;45.21;100058.31;5070081;28;20040;-48
2022/09/14 01:21:15;;;;;;;5.80;1.63;;;;;;;28.27;44.86;100048.63;5055552;28;20068;-49
2022/09/14 01:23:47;;;;;;;8.48;2.35;;;;;;;28.30;44.82;100041.53;5055830;28;20021;-52
2022/09/14 01:26:53;;;;;;;7.95;2.60;;;;;;;28.30;45.13;100045.94;5058367;28;20040;-52
2022/09/14 01:29:44;;;;;;;9.90;2.50;;;;;;;28.28;44.86;100045.09;5064642;28;20042;-49
2022/09/14 01:32:18;;;;;;;10.05;2.25;;;;;;;28.26;44.91;100047.78;5078861;28;20036;-49
2022/09/14 01:34:54;;;;;;;8.60;2.38;;;;;;;28.20;44.82;100054.03;5057191;28;21157;-49
2022/09/14 01:37:26;;;;;;;6.78;2.15;;;;;;;28.22;45.08;100056.63;5059115;28;20028;-50
2022/09/14 01:40:10;;;;;;;8.82;2.35;;;;;;;28.22;44.73;100051.38;5070224;28;20393;-48
2022/09/14 01:42:40;;;;;;;7.65;2.30;;;;;;;28.19;44.78;100054.94;5055158;28;20054;-49
2022/09/14 01:45:12;;;;;;;7.38;2.50;;;;;;;28.18;44.92;100049.69;5054406;28;20028;-51
2022/09/14 01:47:48;;;;;;;8.35;2.00;;;;;;;28.18;44.74;100050.56;5069353;28;20509;-51
2022/09/14 01:50:23;;;;;;;6.72;2.33;;;;;;;28.21;44.81;100049.63;5054597;28;20063;-49
2022/09/14 01:52:56;;;;;;;6.78;2.15;;;;;;;28.16;44.88;100041.81;5057640;28;20036;-47
2022/09/14 01:55:29;;;;;;;9.10;2.72;;;;;;;28.17;44.85;100040.03;5072772;28;20031;-52
2022/09/14 01:58:02;;;;;;;4.50;1.75;;;;;;;28.17;44.89;100046.19;5054305;28;20052;-48
2022/09/14 02:00:31;;;;;;;6.50;2.00;;;;;;;28.15;44.74;100037.44;5064702;28;20952;-48
2022/09/14 02:03:16;;;;;;;7.00;2.05;;;;;;;28.15;45.10;100047.97;5059888;28;20035;-49
2022/09/14 02:05:55;;;;;;;6.32;2.35;;;;;;;28.08;45.00;100046.31;5073860;28;20107;-52
2022/09/14 02:08:26;;;;;;;8.88;2.20;;;;;;;28.09;45.24;100040.13;5075793;28;20063;-52
2022/09/14 02:10:54;;;;;;;3.80;1.65;;;;;;;28.11;45.04;100045.44;5056392;28;20090;-50
2022/09/14 02:13:22;;;;;;;5.88;1.70;;;;;;;27.92;45.24;100018.50;5068031;28;20060;-52
2022/09/14 02:15:51;;;;;;;9.32;2.10;;;;;;;27.98;45.35;100032.44;5074514;28;20051;-52
2022/09/14 02:18:20;;;;;;;4.63;1.80;;;;;;;28.09;45.35;100049.84;5071026;28;21027;-51
2022/09/14 02:20:54;;;;;;;5.97;2.08;;;;;;;28.05;45.33;100049.88;5071498;28;20028;-49
2022/09/14 02:23:23;;;;;;;9.98;2.33;;;;;;;28.03;45.67;100046.41;5048976;28;20064;-52
2022/09/14 02:25:52;;;;;;;6.38;2.25;;;;;;;28.01;45.59;100047.34;5049834;28;20040;-49
2022/09/14 02:28:20;;;;;;;7.53;2.03;;;;;;;27.99;46.03;100050.00;5053197;28;20054;-51
2022/09/14 02:31:12;;;;;;;7.00;2.38;;;;;;;27.91;45.82;100046.63;5066209;28;20438;-52
2022/09/14 02:34:00;;;;;;;8.85;2.10;;;;;;;27.92;46.24;100048.38;5071077;28;20395;-50
2022/09/14 02:36:47;;;;;;;9.02;2.42;;;;;;;27.83;46.31;100054.69;5068234;28;20048;-52
2022/09/14 02:39:24;;;;;;;6.68;2.17;;;;;;;27.83;46.33;100052.06;5076608;28;20036;-48
2022/09/14 02:42:00;;;;;;;8.82;2.95;;;;;;;27.83;46.60;100044.16;5071085;28;20023;-48
2022/09/14 02:44:36;;;;;;;9.57;2.25;;;;;;;27.85;46.69;100052.00;5056531;28;20073;-55
2022/09/14 02:47:26;;;;;;;10.00;3.05;;;;;;;27.87;46.49;100053.75;5052953;28;20033;-47
2022/09/14 02:50:02;;;;;;;8.85;3.65;;;;;;;27.86;46.37;100049.38;5057132;28;20202;-50
2022/09/14 02:52:35;;;;;;;8.48;2.92;;;;;;;27.84;46.58;100048.53;5074864;28;20026;-50
2022/09/14 02:55:13;;;;;;;11.20;2.70;;;;;;;27.79;46.74;100041.59;5052741;28;20114;-51
2022/09/14 02:58:05;;;;;;;10.15;3.03;;;;;;;27.85;46.68;100054.66;5047299;28;20033;-48
2022/09/14 03:00:36;;;;;;;8.18;2.80;;;;;;;27.88;46.42;100044.06;5062073;28;20047;-51
2022/09/14 03:03:06;;;;;;;13.68;3.35;;;;;;;27.89;46.34;100048.44;5074109;28;20387;-52
2022/09/14 03:05:34;;;;;;;5.88;2.17;;;;;;;27.89;46.64;100054.56;5067463;28;20081;-48
2022/09/14 03:08:03;;;;;;;8.80;3.08;;;;;;;27.87;46.63;100058.13;5067835;28;20135;-48
2022/09/14 03:10:32;;;;;;;9.88;3.10;;;;;;;27.82;46.49;100041.50;5073352;28;20094;-47
2022/09/14 03:13:01;;;;;;;7.47;2.63;;;;;;;27.85;46.73;100034.44;5076546;28;20032;-50
2022/09/14 03:15:30;;;;;;;11.63;3.42;;;;;;;27.82;46.70;100044.16;5056902;28;20028;-48
2022/09/14 03:17:58;;;;;;;9.18;3.55;;;;;;;27.80;46.89;100038.06;5066575;28;20054;-48
2022/09/14 03:20:31;;;;;;;10.65;3.25;;;;;;;27.81;46.99;100039.78;5072476;28;20040;-50
2022/09/14 03:23:00;;;;;;;8.43;2.92;;;;;;;27.76;47.10;100037.22;5074201;28;20390;-50
2022/09/14 03:25:29;;;;;;;7.25;2.85;;;;;;;27.81;47.06;100038.03;5070764;28;20039;-51
2022/09/14 03:27:59;;;;;;;7.43;2.72;;;;;;;27.84;46.79;100039.72;5074305;28;20418;-49
2022/09/14 03:30:28;;;;;;;7.45;2.88;;;;;;;27.81;46.99;100031.88;5069539;28;20090;-49
2022/09/14 03:32:58;;;;;;;5.32;2.35;;;;;;;27.79;47.11;100041.59;5067443;28;20032;-51
2022/09/14 03:35:30;;;;;;;7.25;2.47;;;;;;;27.75;47.19;100041.66;5074440;28;20108;-51
2022/09/14 03:37:59;;;;;;;5.43;2.35;;;;;;;27.78;47.28;100045.13;5071284;28;20032;-47
2022/09/14 03:40:28;;;;;;;5.90;2.20;;;;;;;27.71;47.04;100039.09;5049558;28;20028;-47
2022/09/14 03:42:56;;;;;;;5.47;2.25;;;;;;;27.77;47.04;100046.03;5073957;28;20432;-48
2022/09/14 03:45:25;;;;;;;6.40;2.00;;;;;;;27.77;46.89;100040.75;5073787;28;20032;-48
2022/09/14 03:47:53;;;;;;;5.53;2.50;;;;;;;27.77;47.28;100041.59;5070202;28;20134;-48
2022/09/14 03:50:23;;;;;;;5.45;2.33;;;;;;;27.74;47.08;100045.16;5073657;28;20097;-48
2022/09/14 03:52:52;;;;;;;5.65;2.45;;;;;;;27.72;47.10;100046.97;5067068;28;20043;-47
2022/09/14 03:55:20;;;;;;;5.05;1.92;;;;;;;27.71;47.47;100047.84;5074139;28;20048;-49
2022/09/14 03:57:50;;;;;;;4.88;1.98;;;;;;;27.73;47.41;100048.69;5072244;28;20024;-47
2022/09/14 04:00:18;;;;;;;4.82;2.42;;;;;;;27.78;46.85;100048.63;5051946;28;20039;-49
2022/09/14 04:02:47;;;;;;;3.40;2.10;;;;;;;27.75;47.10;100046.91;5068816;28;20041;-52
2022/09/14 04:05:15;;;;;;;4.95;1.98;;;;;;;27.63;47.24;100028.69;5070858;28;20035;-50
2022/09/14 04:07:44;;;;;;;4.35;2.30;;;;;;;27.75;47.22;100040.75;5072853;28;20028;-51
2022/09/14 04:10:12;;;;;;;5.85;2.00;;;;;;;27.72;47.34;100038.16;5074418;28;20024;-49
2022/09/14 04:12:41;;;;;;;4.53;2.05;;;;;;;27.69;47.42;100038.25;5074707;28;20024;-48
2022/09/14 04:15:09;;;;;;;4.38;1.88;;;;;;;27.72;47.21;100038.16;5074369;28;20044;-49
2022/09/14 04:17:39;;;;;;;3.58;2.03;;;;;;;27.68;47.32;100039.16;5068367;28;20077;-52
2022/09/14 04:20:07;;;;;;;5.28;1.65;;;;;;;27.67;47.50;100032.13;5068328;28;20483;-51
2022/09/14 04:22:35;;;;;;;3.85;1.90;;;;;;;27.71;47.47;100033.81;5073658;28;20032;-49
2022/09/14 04:25:04;;;;;;;3.25;1.63;;;;;;;27.68;47.34;100034.72;5068564;28;20025;-51
2022/09/14 04:27:33;;;;;;;3.72;1.70;;;;;;;27.65;47.50;100032.13;5068592;28;20080;-52
2022/09/14 04:30:01;;;;;;;4.03;1.35;;;;;;;27.69;47.52;100038.25;5073779;28;20046;-48
2022/09/14 04:32:30;;;;;;;3.17;1.40;;;;;;;27.69;47.59;100041.75;5069739;28;20484;-49
2022/09/14 04:34:59;;;;;;;3.60;1.60;;;;;;;27.58;47.58;100031.38;5075488;28;20032;-50
2022/09/14 04:37:30;;;;;;;3.25;1.30;;;;;;;27.69;47.56;100046.16;5052068;28;20059;-51
2022/09/14 04:39:58;;;;;;;3.33;1.77;;;;;;;27.68;47.43;100042.63;5069373;28;20104;-51
2022/09/14 04:42:27;;;;;;;3.35;1.52;;;;;;;27.70;47.37;100043.47;5068622;28;20104;-52
2022/09/14 04:44:55;;;;;;;2.90;1.80;;;;;;;27.70;47.56;100038.22;5068835;28;20036;-48
2022/09/14 04:47:24;;;;;;;4.75;1.35;;;;;;;27.66;47.66;100033.03;5068814;28;20035;-50
2022/09/14 04:49:53;;;;;;;2.03;1.15;;;;;;;27.69;47.51;100030.34;5069704;28;20387;-47
2022/09/14 04:52:22;;;;;;;4.22;1.50;;;;;;;27.67;47.80;100029.50;5070464;28;20064;-51
2022/09/14 04:54:50;;;;;;;2.33;1.10;;;;;;;27.67;47.62;100033.00;5062941;28;20553;-52
2022/09/14 04:57:19;;;;;;;1.10;1.00;;;;;;;27.66;47.49;100031.25;5068785;28;20479;-51
2022/09/14 04:59:47;;;;;;;2.47;1.38;;;;;;;27.68;47.55;100025.97;5071570;28;20077;-48
2022/09/14 05:02:16;;;;;;;1.92;1.05;;;;;;;27.72;47.31;100039.06;5068854;28;20024;-47
2022/09/14 05:04:44;;;;;;;2.75;1.30;;;;;;;27.70;47.20;100034.72;5073351;28;20036;-50
2022/09/14 05:07:12;;;;;;;3.15;1.15;;;;;;;27.66;47.49;100043.56;5070196;28;20033;-47
2022/09/14 05:09:41;;;;;;;2.17;1.20;;;;;;;27.64;47.61;100048.84;5066021;28;20024;-51
2022/09/14 05:12:09;;;;;;;2.70;1.10;;;;;;;27.68;47.36;100052.31;5069978;28;20043;-48
2022/09/14 05:14:38;;;;;;;1.83;1.20;;;;;;;27.62;47.45;100053.28;5063273;28;20078;-49
2022/09/14 05:17:06;;;;;;;2.33;1.25;;;;;;;27.69;47.44;100054.91;5069670;28;20504;-52
2022/09/14 05:19:34;;;;;;;1.40;1.00;;;;;;;27.66;47.59;100065.50;5068569;28;20034;-48
2022/09/14 05:22:03;;;;;;;2.25;1.40;;;;;;;27.64;47.36;100058.53;5069654;28;20038;-51
2022/09/14 05:24:31;;;;;;;1.73;1.13;;;;;;;27.68;47.28;100058.44;5066888;28;20032;-48
2022/09/14 05:27:00;;;;;;;3.38;1.23;;;;;;;27.70;47.37;100064.56;5068734;28;20553;-48
2022/09/14 05:29:28;;;;;;;2.00;1.20;;;;;;;27.53;47.46;100045.53;5068775;28;20466;-52
2022/09/14 05:31:57;;;;;;;1.48;0.90;;;;;;;27.62;47.29;100063.84;5071107;28;20035;-50
2022/09/14 05:34:24;;;;;;;2.90;1.20;;;;;;;27.62;47.34;100063.84;5071105;28;20058;-48
2022/09/14 05:36:53;;;;;;;2.58;1.25;;;;;;;27.64;47.46;100064.66;5070697;28;20031;-48
2022/09/14 05:39:21;;;;;;;3.47;1.35;;;;;;;27.65;47.38;100066.38;5072409;28;20043;-49
2022/09/14 05:41:50;;;;;;;1.95;1.00;;;;;;;27.74;47.07;100062.72;5065202;28;20041;-48
2022/09/14 05:44:19;;;;;;;2.45;1.25;;;;;;;27.70;47.25;100064.56;5064908;28;20047;-48
2022/09/14 05:46:46;;;;;;;1.48;1.08;;;;;;;27.67;47.24;100072.50;5074970;28;20028;-48
2022/09/14 05:49:15;;;;;;;2.63;1.00;;;;;;;27.64;47.44;100080.47;5068957;28;20028;-49
2022/09/14 05:51:43;;;;;;;4.13;0.95;;;;;;;27.57;47.56;100079.69;5075766;28;20032;-47
2022/09/14 05:54:11;;;;;;;2.65;0.90;;;;;;;27.59;47.58;100085.81;5075752;28;20726;-47
2022/09/14 05:56:40;;;;;;;3.42;1.13;;;;;;;27.62;47.45;100074.38;5071206;28;20032;-48
2022/09/14 05:59:09;;;;;;;3.67;1.38;;;;;;;27.68;47.43;100086.56;5071163;28;20078;-50
2022/09/14 06:01:38;;;;;;;1.20;0.88;;;;;;;27.64;47.60;100077.81;5069144;28;20914;-51
2022/09/14 06:04:06;;;;;;;3.05;1.40;;;;;;;27.59;47.63;100074.41;5071846;28;20035;-49
2022/09/14 06:06:35;;;;;;;2.58;0.90;;;;;;;27.62;47.64;100079.66;5072163;28;20471;-55
2022/09/14 06:09:03;;;;;;;1.15;0.77;;;;;;;27.62;47.86;100081.38;5069837;28;20039;-54
2022/09/14 06:11:35;;;;;;;1.95;1.00;;;;;;;27.58;48.02;100086.69;5075702;28;20043;-49
2022/09/14 06:14:03;;;;;;;1.45;0.80;;;;;;;27.68;47.50;100081.31;5053728;28;20078;-54
2022/09/14 06:16:31;;;;;;;4.28;1.17;;;;;;;27.69;47.62;100089.16;5075917;28;20028;-53
2022/09/14 06:19:00;;;;;;;2.60;1.35;;;;;;;27.69;47.72;100089.16;5076299;28;20028;-57
2022/09/14 06:21:31;;;;;;;4.55;1.38;;;;;;;27.67;47.52;100101.50;5076367;28;20755;-58
2022/09/14 06:23:59;;;;;;;1.23;0.77;;;;;;;27.77;47.63;100098.72;5065359;28;20028;-51
2022/09/14 06:26:28;;;;;;;2.40;0.90;;;;;;;27.77;47.49;100107.47;5075389;28;20047;-53
2022/09/14 06:28:56;;;;;;;3.40;1.42;;;;;;;27.74;47.49;100107.53;5050647;28;20433;-50
2022/09/14 06:31:24;;;;;;;2.53;1.00;;;;;;;27.71;47.77;100097.91;5070388;28;20024;-50
2022/09/14 06:33:52;;;;;;;1.77;0.80;;;;;;;27.68;47.77;100097.97;5049060;28;20106;-55
2022/09/14 06:36:22;;;;;;;6.05;0.90;;;;;;;27.78;47.49;100106.59;5070904;28;20020;-55
2022/09/14 06:38:50;;;;;;;1.90;1.13;;;;;;;27.75;47.59;100102.25;5067192;28;20920;-51
2022/09/14 06:41:21;;;;;;;2.33;0.98;;;;;;;27.77;47.43;100109.25;5069215;28;20548;-56
2022/09/14 06:43:49;;;;;;;2.22;1.10;;;;;;;27.78;47.48;100103.97;5068854;28;20047;-51
2022/09/14 06:46:19;;;;;;;1.67;0.80;;;;;;;27.79;47.32;100110.97;5071801;28;20031;-52
2022/09/14 06:48:49;;;;;;;2.60;0.60;;;;;;;27.78;47.47;100106.59;5068745;28;20063;-48
2022/09/14 06:51:30;;;;;;;1.00;0.70;;;;;;;27.82;47.45;100112.66;5070579;28;20055;-48
2022/09/14 06:53:59;;;;;;;3.90;1.00;;;;;;;27.82;47.33;100110.03;5051316;28;20029;-50
2022/09/14 06:56:30;;;;;;;3.00;0.75;;;;;;;27.85;47.29;100112.63;5069382;28;20031;-50
2022/09/14 06:58:58;;;;;;;3.67;0.80;;;;;;;27.84;47.18;100111.78;5067282;28;20074;-47
2022/09/14 07:01:26;;;;;;;2.88;0.77;;;;;;;27.83;47.35;100114.41;5069454;28;20028;-47
2022/09/14 07:03:55;;;;;;;3.78;0.77;;;;;;;27.83;47.42;100112.66;5051837;28;20485;-51
2022/09/14 07:06:25;;;;;;;1.88;0.90;;;;;;;27.79;47.50;100118.03;5051624;28;20036;-51
2022/09/14 07:08:54;;;;;;;1.20;0.73;;;;;;;27.86;47.49;100125.81;5065378;28;20043;-50
2022/09/14 07:11:25;;;;;;;3.70;0.82;;;;;;;27.87;47.03;100130.19;5048048;28;20036;-51
2022/09/14 07:13:57;;;;;;;5.75;0.80;;;;;;;27.86;47.03;100128.44;5064788;28;20043;-48
2022/09/14 07:16:28;;;;;;;2.63;0.60;;;;;;;27.85;47.20;100133.72;5069765;28;20032;-50
2022/09/14 07:18:57;;;;;;;1.58;0.47;;;;;;;27.84;47.14;100132.84;5067895;28;20028;-52
2022/09/14 07:21:29;;;;;;;2.10;0.63;;;;;;;27.87;47.24;100127.53;5067028;28;20546;-49
2022/09/14 07:23:58;;;;;;;3.63;0.68;;;;;;;27.84;47.45;100129.34;5069454;28;20024;-51
2022/09/14 07:26:28;;;;;;;0.85;0.60;;;;;;;27.86;47.26;100131.06;5071022;28;20051;-50
2022/09/14 07:29:00;;;;;;;2.65;0.40;;;;;;;27.86;47.25;100125.81;5067334;28;20064;-48
2022/09/14 07:31:30;;;;;;;3.65;0.70;;;;;;;27.92;47.33;100127.47;5068020;28;20028;-46
2022/09/14 07:34:02;;;;;;;1.10;0.57;;;;;;;27.95;47.16;100135.31;5069000;28;20023;-47
2022/09/14 07:36:30;;;;;;;3.75;0.60;;;;;;;27.98;47.04;100127.34;5069168;28;20032;-47
2022/09/14 07:38:57;;;;;;;0.77;0.70;;;;;;;27.81;47.41;100111.81;5065099;28;20056;-47
2022/09/14 07:41:28;;;;;;;1.27;0.63;;;;;;;27.93;47.25;100137.09;5067336;28;20028;-49
2022/09/14 07:43:59;;;;;;;1.83;0.73;;;;;;;28.00;46.94;100146.63;5069568;28;20031;-50
2022/09/14 07:46:28;;;;;;;4.85;0.63;;;;;;;27.94;47.10;100140.59;5072512;28;20028;-47
2022/09/14 07:48:57;;;;;;;2.78;0.68;;;;;;;28.00;47.12;100151.06;5052541;28;20399;-48
2022/09/14 07:51:25;;;;;;;1.27;0.70;;;;;;;27.94;47.30;100156.41;5049696;28;20036;-50
2022/09/14 07:53:52;;;;;;;1.77;1.13;;;;;;;27.87;47.33;100148.63;5070855;28;20028;-49
2022/09/14 07:56:20;;;;;;;2.60;0.60;;;;;;;27.91;47.29;100154.72;5067956;28;20028;-47
2022/09/14 07:58:48;;;;;;;2.25;0.95;;;;;;;27.96;47.18;100155.50;5048843;28;20025;-50
2022/09/14 08:01:17;;;;;;;3.17;0.73;;;;;;;27.97;47.19;100159.00;5049484;28;20036;-50
2022/09/14 08:03:47;;;;;;;0.75;0.65;;;;;;;27.96;47.08;100158.16;5073392;28;20020;-49
2022/09/14 08:06:18;;;;;;;2.05;0.80;;;;;;;27.98;46.77;100158.09;5067239;28;20036;-51
2022/09/14 08:08:48;;;;;;;1.10;0.60;;;;;;;28.02;46.80;100167.72;5069248;28;20024;-50
2022/09/14 08:11:35;;;;;;;2.72;0.77;;;;;;;27.98;47.03;100166.88;5067874;28;20051;-53
2022/09/14 08:14:09;;;;;;;2.05;1.00;;;;;;;28.02;46.91;100165.94;5069286;28;20039;-51
2022/09/14 08:16:37;;;;;;;1.95;0.93;;;;;;;28.04;46.68;100177.31;5069875;28;20035;-50
2022/09/14 08:19:11;;;;;;;1.70;0.90;;;;;;;28.05;46.56;100172.91;5065427;28;20098;-54
2022/09/14 08:21:38;;;;;;;2.47;1.00;;;;;;;28.02;46.41;100175.63;5048484;28;20028;-51
2022/09/14 08:24:05;;;;;;;2.70;0.90;;;;;;;28.09;46.43;100179.03;5065268;28;20032;-52
2022/09/14 08:26:35;;;;;;;1.48;0.90;;;;;;;28.08;46.80;100179.91;5058156;28;20053;-52
2022/09/14 08:29:03;;;;;;;1.73;0.88;;;;;;;28.09;46.54;100179.03;5043620;28;20124;-52
2022/09/14 08:31:31;;;;;;;1.67;0.88;;;;;;;28.08;46.39;100179.91;5046620;28;20621;-49
2022/09/14 08:34:02;;;;;;;2.92;1.00;;;;;;;28.08;46.39;100183.41;5045831;28;20043;-49
2022/09/14 08:36:34;;;;;;;2.22;1.15;;;;;;;28.08;46.42;100191.31;5043160;28;20100;-50
2022/09/14 08:39:01;;;;;;;5.15;0.90;;;;;;;28.09;46.47;100187.78;5042633;28;20676;-50
2022/09/14 08:41:35;;;;;;;4.70;1.00;;;;;;;28.04;46.66;100198.41;5049581;28;20032;-51
2022/09/14 08:44:25;;;;;;;4.82;1.35;;;;;;;28.06;46.43;100201.03;5054061;28;20029;-49
2022/09/14 08:47:11;;;;;;;3.13;0.82;;;;;;;28.10;46.52;100202.75;5049581;28;20025;-52
2022/09/14 08:50:03;;;;;;;3.55;0.95;;;;;;;28.12;46.45;100213.28;5050317;28;20375;-49
2022/09/14 08:52:41;;;;;;;5.63;1.48;;;;;;;28.11;46.66;100204.50;5043246;28;20041;-52
2022/09/14 08:55:43;;;;;;;8.07;1.50;;;;;;;28.14;46.66;100198.28;5048938;28;20029;-51
2022/09/14 08:58:10;;;;;;;4.95;1.30;;;;;;;28.13;46.58;100212.41;5052324;28;20071;-50
2022/09/14 09:00:43;;;;;;;4.13;1.25;;;;;;;28.10;46.72;100209.81;5048035;28;20975;-47
2022/09/14 09:03:36;;;;;;;3.10;1.40;;;;;;;28.08;46.95;100206.28;5045057;28;20028;-52
2022/09/14 09:06:30;;;;;;;4.25;1.27;;;;;;;28.02;47.00;100209.91;5045175;28;20127;-50
2022/09/14 09:09:18;;;;;;;3.28;1.58;;;;;;;28.05;46.88;100210.72;5045558;28;20040;-47
2022/09/14 09:11:50;;;;;;;4.70;1.77;;;;;;;28.04;46.95;100211.59;5042558;28;20040;-50
2022/09/14 09:14:19;;;;;;;1.55;0.90;;;;;;;28.07;47.04;100209.81;5043805;28;20025;-47
2022/09/14 09:16:50;;;;;;;3.28;1.20;;;;;;;28.04;46.91;100208.97;5046478;28;20028;-50
2022/09/14 09:19:33;;;;;;;2.92;1.00;;;;;;;28.04;46.80;100216.88;5048734;28;20111;-47
2022/09/14 09:22:03;;;;;;;2.10;1.20;;;;;;;28.07;46.85;100223.00;5048880;28;20135;-51
2022/09/14 09:24:45;;;;;;;3.22;1.45;;;;;;;28.04;47.05;100221.28;5051627;28;20479;-48
2022/09/14 09:27:15;;;;;;;1.27;0.95;;;;;;;28.07;46.81;100225.63;5048027;28;20048;-48
2022/09/14 09:29:44;;;;;;;2.50;1.10;;;;;;;28.08;46.61;100222.97;5049399;28;20029;-46
2022/09/14 09:32:18;;;;;;;2.53;1.13;;;;;;;28.05;46.88;100218.63;5048152;28;20116;-48
2022/09/14 09:34:46;;;;;;;;;;;;;;;28.08;46.92;100225.59;5051639;28;20036;-47
2022/09/14 09:37:19;;;;;;;2.83;1.20;;;;;;;28.04;46.99;100219.50;5047491;28;19917;-47
2022/09/14 09:39:48;;;;;;;3.00;1.33;;;;;;;28.05;46.94;100237.06;5051432;28;20025;-49
2022/09/14 09:42:22;;;;;;;2.20;1.20;;;;;;;28.08;46.88;100222.09;5045448;28;20201;-50
2022/09/14 09:44:57;;;;;;;1.67;1.20;;;;;;;28.04;47.01;100224.78;5048765;28;20032;-48
2022/09/14 09:47:28;;;;;;;2.00;1.20;;;;;;;28.00;46.77;100214.31;5050448;28;20036;-46
2022/09/14 09:50:02;;;;;;;3.33;1.50;;;;;;;28.01;46.82;100216.91;5052684;28;20017;-47
2022/09/14 09:52:30;;;;;;;2.22;1.17;;;;;;;28.06;46.69;100219.47;5051006;28;20029;-47
2022/09/14 09:54:59;;;;;;;2.60;1.45;;;;;;;28.08;46.89;100217.69;5054486;28;20104;-48
2022/09/14 09:57:38;;;;;;;4.47;1.67;;;;;;;28.02;47.08;100223.94;5050904;28;20024;-49
2022/09/14 10:00:18;;;;;;;1.65;1.33;;;;;;;27.94;47.04;100223.19;5050193;28;20024;-49
2022/09/14 10:02:47;;;;;;;3.00;1.40;;;;;;;28.02;47.36;100234.47;5050883;28;20139;-49
2022/09/14 10:05:24;;;;;;;2.67;1.40;;;;;;;28.08;46.83;100235.28;5047309;28;20066;-50
2022/09/14 10:08:02;;;;;;;3.90;1.38;;;;;;;28.03;47.20;100238.84;5047670;28;20097;-47
2022/09/14 10:10:41;;;;;;;4.82;1.30;;;;;;;28.07;46.89;100244.09;5048792;28;20383;-54
2022/09/14 10:13:30;;;;;;;4.20;1.65;;;;;;;28.12;46.75;100237.03;5044740;28;20112;-52
2022/09/14 10:16:06;;;;;;;2.72;1.17;;;;;;;28.13;46.77;100234.34;5050101;28;20020;-51
2022/09/14 10:18:34;;;;;;;2.08;1.60;;;;;;;28.11;46.81;100248.47;5048528;28;20399;-50
2022/09/14 10:21:02;;;;;;;2.50;1.52;;;;;;;28.15;47.10;100244.84;5049687;28;20039;-52
2022/09/14 10:23:32;;;;;;;3.78;1.73;;;;;;;28.16;47.08;100249.25;5050079;28;20033;-53
2022/09/14 10:26:21;;;;;;;2.75;1.20;;;;;;;28.17;47.09;100243.97;5052843;28;20169;-51
2022/09/14 10:28:50;;;;;;;3.63;1.38;;;;;;;28.22;47.33;100245.63;5049087;28;20033;-52
2022/09/14 10:31:21;;;;;;;2.28;1.63;;;;;;;28.22;47.14;100243.00;5068035;28;20032;-51
2022/09/14 10:33:54;;;;;;;2.10;1.35;;;;;;;28.26;46.87;100255.25;5048695;28;20118;-49
2022/09/14 10:36:26;;;;;;;2.92;1.60;;;;;;;28.32;47.05;100255.16;5071366;28;20195;-49
2022/09/14 10:39:16;;;;;;;4.88;2.38;;;;;;;28.29;47.27;100250.81;5066902;28;20029;-48
2022/09/14 10:42:07;;;;;;;4.07;1.80;;;;;;;28.30;47.11;100257.78;5061882;28;20102;-48
2022/09/14 10:44:50;;;;;;;5.47;1.73;;;;;;;28.31;47.16;100256.91;5067277;28;20044;-54
2022/09/14 10:47:27;;;;;;;3.55;2.08;;;;;;;28.32;47.21;100263.91;5070647;28;20035;-50
2022/09/14 10:50:14;;;;;;;5.47;2.08;;;;;;;28.32;47.39;100265.69;5070443;28;20108;-49
2022/09/14 10:52:46;;;;;;;6.07;2.22;;;;;;;28.34;47.34;100267.41;5059474;28;20032;-49
2022/09/14 10:55:30;;;;;;;4.75;1.83;;;;;;;28.32;47.44;100256.00;5072831;28;20037;-48
2022/09/14 10:58:08;;;;;;;4.15;2.10;;;;;;;28.34;47.13;100263.91;5068967;28;20825;-49
2022/09/14 11:01:02;;;;;;;6.05;2.00;;;;;;;28.34;47.33;100262.13;5071797;28;20035;-49
2022/09/14 11:03:41;;;;;;;3.03;1.70;;;;;;;28.35;47.40;100271.78;5070190;28;20690;-51
2022/09/14 11:06:37;;;;;;;4.88;1.70;;;;;;;28.38;47.16;100276.13;5049474;28;20033;-49
2022/09/14 11:09:25;;;;;;;3.63;2.00;;;;;;;28.43;47.24;100279.56;5069639;28;20021;-51
2022/09/14 11:12:26;;;;;;;4.72;1.88;;;;;;;28.45;47.13;100279.56;5056710;28;20751;-48
2022/09/14 11:15:18;;;;;;;3.33;1.70;;;;;;;28.53;47.10;100285.56;5044738;28;20128;-48
2022/09/14 11:17:54;;;;;;;2.47;1.48;;;;;;;28.53;47.63;100290.00;5056520;28;20075;-48
2022/09/14 11:20:41;;;;;;;2.65;1.70;;;;;;;28.60;46.99;100295.13;5067898;28;20025;-51
2022/09/14 11:23:32;;;;;;;2.50;1.45;;;;;;;28.60;47.12;100297.78;5063960;28;20070;-49
2022/09/14 11:26:08;;;;;;;4.28;1.80;;;;;;;28.63;46.97;100310.88;5056930;28;20143;-48
2022/09/14 11:28:39;;;;;;;2.92;1.70;;;;;;;28.66;46.95;100304.72;5053260;28;20032;-50
2022/09/14 11:31:12;;;;;;;2.35;1.58;;;;;;;28.69;46.79;100303.78;5069353;28;20028;-50
2022/09/14 11:33:51;;;;;;;3.22;1.55;;;;;;;28.70;46.97;100309.03;5068605;28;20498;-47
2022/09/14 11:36:23;;;;;;;3.10;1.35;;;;;;;28.72;46.75;100311.63;5048925;28;20036;-47
2022/09/14 11:39:14;;;;;;;4.07;1.98;;;;;;;28.72;47.13;100312.50;5052661;28;20487;-51
2022/09/14 11:42:07;;;;;;;3.47;1.40;;;;;;;28.79;46.94;100313.31;5061975;28;20298;-54
2022/09/14 11:44:39;;;;;;;2.58;1.50;;;;;;;28.85;46.73;100309.69;5067877;28;20036;-47
2022/09/14 11:47:17;;;;;;;2.58;1.73;;;;;;;28.84;46.47;100311.44;5052033;28;20030;-49
2022/09/14 11:49:49;;;;;;;2.10;1.70;;;;;;;28.88;46.55;100314.91;5065316;28;20032;-47
2022/09/14 11:52:20;;;;;;;2.28;1.80;;;;;;;28.85;46.88;100315.84;5063509;28;20059;-48
2022/09/14 11:54:49;;;;;;;1.92;1.42;;;;;;;28.86;46.35;100306.16;5068730;28;20433;-49